East Texas Regional Airport
KGGG : now visible

Airfield :











YOU CAN JOIN US ON...

 
LOGIN :

Register | Disclaimer

   EN    FR    IT 

 









Legend :    VFR   Marginal VFR   IFR   Intensive IFR   Very Intensive IFR
Visi :
Ceiling :
>= 8 km
>= 3000ft
5 to 8 km
1000 to 3000 ft
1500m to 5 km
500 to 1000 ft
800 to 1500m
200 to 500 ft
< 800m
< 200 ft
Symbols :   Thunderstorms  Fog  Heavy snow  Heavy precipitations  Wind > 20 kt






- Airport Elevation : 365 ft
- IATA code : GGG


KGGG - East Texas Regional

CURRENT METAR :
  • 172053Z 15006KT 5SM BR OVC006 13/11 A3016 RMK AO2 SLP214 T01280106 56039

EXPIRED METARs :
  • 171953Z 14004KT 5SM BR OVC005 12/10 A3019 RMK AO2 SLP223 T01170100
  • 171853Z 13006KT 10SM OVC005 11/09 A3024 RMK AO2 SLP239 T01060089

TAF KGGG
Valid from the 17 at 20:00 until the 18 at 18:00 UTC


172006Z 1720/1818 10010KT 5SM BR OVC005
FM172100 14010KT P6SM BKN018 OVC028
FM180300 16011KT P6SM -SHRA OVC008
FM180600 17011KT 6SM -RA OVC011
FM181500 31009KT 4SM -RA BKN006 BKN009 BKN015



MET'MAP, your aeronautical weather chart ! - Copyright ORBIFLY December 2007 - Disclaimer

ORBIFLY MET'MAP TEAM :

Programming & Development : Alexandra Zaïnal
Concept & original design : Baudouin d'Aumeries
Assistance for programming : Marc-Olivier Méhu
Technical & hardware support : Manuel Goepfert

Contact : metmap@orbifly.com




SOURCES & CREDITS :

   NOAA       Earth
Advisory